createdAt,value
2023-03-24T00:01:17.249Z,11.90
2023-03-24T00:03:47.020Z,11.80
2023-03-24T00:06:18.949Z,11.80
2023-03-24T00:08:48.586Z,11.80
2023-03-24T00:11:21.429Z,11.70
2023-03-24T00:13:50.742Z,11.70
2023-03-24T00:16:22.323Z,11.70
2023-03-24T00:18:53.738Z,11.70
2023-03-24T00:21:26.951Z,11.60
2023-03-24T00:23:56.126Z,11.60
2023-03-24T00:27:15.727Z,11.50
2023-03-24T00:29:42.916Z,11.50
2023-03-24T00:32:10.218Z,11.40
2023-03-24T00:34:38.664Z,11.40
2023-03-24T00:37:06.615Z,11.40
2023-03-24T00:39:33.933Z,11.40
2023-03-24T00:42:03.534Z,11.30
2023-03-24T00:44:30.657Z,11.40
2023-03-24T00:46:57.910Z,11.40
2023-03-24T00:49:48.241Z,11.40
2023-03-24T00:52:21.037Z,11.40
2023-03-24T00:54:50.325Z,11.40
2023-03-24T00:57:26.287Z,11.40
2023-03-24T00:59:54.767Z,11.40
2023-03-24T01:02:25.313Z,11.30
2023-03-24T01:04:57.703Z,11.30
2023-03-24T01:07:26.801Z,11.30
2023-03-24T01:10:00.197Z,11.30
2023-03-24T01:12:33.249Z,11.30
2023-03-24T01:15:06.216Z,11.30
2023-03-24T01:17:34.737Z,11.30
2023-03-24T01:20:11.738Z,11.30
2023-03-24T01:22:41.171Z,11.40
2023-03-24T01:25:11.944Z,11.40
2023-03-24T01:27:39.124Z,11.40
2023-03-24T01:30:07.210Z,11.40
2023-03-24T01:32:34.693Z,11.40
2023-03-24T01:35:01.895Z,11.40
2023-03-24T01:37:29.047Z,11.50
2023-03-24T01:39:56.337Z,11.50
2023-03-24T01:42:26.433Z,11.50
2023-03-24T01:45:00.594Z,11.60
2023-03-24T01:47:27.826Z,11.60
2023-03-24T01:49:59.983Z,11.60
2023-03-24T01:52:31.269Z,11.60
2023-03-24T01:55:14.281Z,11.70
2023-03-24T01:57:45.086Z,11.70
2023-03-24T02:00:15.802Z,11.70
2023-03-24T02:03:11.887Z,11.70
2023-03-24T02:05:53.493Z,11.70
2023-03-24T02:08:21.320Z,11.70
2023-03-24T02:10:49.551Z,11.70
2023-03-24T02:13:16.849Z,11.70
2023-03-24T02:16:22.105Z,11.70
2023-03-24T02:19:12.675Z,11.70
2023-03-24T02:21:49.155Z,11.60
2023-03-24T02:24:34.272Z,11.70
2023-03-24T02:27:30.253Z,11.70
2023-03-24T02:30:09.825Z,11.70
2023-03-24T02:33:05.160Z,11.60
2023-03-24T02:35:35.586Z,11.70
2023-03-24T02:38:29.100Z,13.20
2023-03-24T02:41:26.395Z,11.70
2023-03-24T02:43:53.555Z,11.70
2023-03-24T02:46:33.475Z,11.70
2023-03-24T02:49:48.398Z,11.70
2023-03-24T02:52:15.800Z,11.80
2023-03-24T02:54:48.594Z,11.80
2023-03-24T02:57:25.987Z,11.90
2023-03-24T03:00:26.384Z,11.90
2023-03-24T03:03:13.451Z,11.90
2023-03-24T03:06:06.149Z,11.90
2023-03-24T03:08:35.392Z,11.80
2023-03-24T03:11:06.031Z,11.90
2023-03-24T03:13:39.564Z,11.80
2023-03-24T03:16:39.640Z,11.70
2023-03-24T03:23:49.633Z,11.70
2023-03-24T03:26:41.776Z,11.70
2023-03-24T03:30:35.470Z,11.70
2023-03-24T03:34:49.376Z,11.70
2023-03-24T04:31:15.554Z,11.30
2023-03-24T04:53:33.432Z,11.40
2023-03-24T05:07:17.472Z,11.20
2023-03-24T05:09:53.670Z,11.50
2023-03-24T05:12:51.109Z,11.30
2023-03-24T05:16:03.506Z,11.10
2023-03-24T05:21:31.315Z,11.30
2023-03-24T05:24:13.639Z,11.60
2023-03-24T05:30:04.138Z,11.70
2023-03-24T05:32:56.525Z,11.70
2023-03-24T05:35:48.565Z,11.60
2023-03-24T05:38:38.396Z,11.60
2023-03-24T05:47:52.015Z,11.80
2023-03-24T05:50:30.658Z,12.00
2023-03-24T05:56:56.022Z,11.10
2023-03-24T05:59:57.511Z,12.00
2023-03-24T06:02:42.186Z,11.90
2023-03-24T06:05:34.495Z,12.00
2023-03-24T06:08:04.155Z,12.10
2023-03-24T06:11:16.081Z,12.20
2023-03-24T06:17:02.110Z,12.30
2023-03-24T06:19:33.027Z,11.90
2023-03-24T06:22:34.984Z,12.30
2023-03-24T06:25:14.388Z,12.40
2023-03-24T06:27:49.408Z,12.40
2023-03-24T06:30:29.489Z,12.40
2023-03-24T06:32:58.877Z,12.50
2023-03-24T06:35:28.373Z,12.10
2023-03-24T06:38:25.587Z,12.50
2023-03-24T06:40:52.957Z,12.50
2023-03-24T06:43:33.763Z,12.60
2023-03-24T06:46:05.050Z,12.70
2023-03-24T06:48:35.005Z,12.80
2023-03-24T06:51:07.348Z,12.80
2023-03-24T06:53:36.199Z,12.90
2023-03-24T06:56:29.204Z,12.90
2023-03-24T06:59:04.295Z,13.00
2023-03-24T07:01:47.043Z,13.00
2023-03-24T07:04:37.140Z,13.40
2023-03-24T07:07:57.066Z,13.10
2023-03-24T07:10:54.582Z,13.10
2023-03-24T07:13:23.848Z,13.10
2023-03-24T07:37:57.158Z,13.10
2023-03-24T08:03:19.172Z,12.60
2023-03-24T08:10:37.768Z,12.70
2023-03-24T08:24:59.057Z,13.30
2023-03-24T09:55:59.930Z,15.70
2023-03-24T09:59:22.541Z,15.90
2023-03-24T10:02:06.368Z,16.10
2023-03-24T10:15:38.109Z,16.40
2023-03-24T10:22:08.499Z,16.90
2023-03-24T10:25:08.110Z,17.00
2023-03-24T10:27:49.119Z,17.10
2023-03-24T10:30:35.849Z,17.40
2023-03-24T10:33:31.156Z,17.50
2023-03-24T10:36:25.570Z,17.50
2023-03-24T10:39:19.645Z,17.70
2023-03-24T10:45:26.244Z,17.80
2023-03-24T10:48:13.959Z,18.00
2023-03-24T10:51:05.710Z,18.00
2023-03-24T10:54:03.840Z,17.90
2023-03-24T11:00:12.351Z,17.40
2023-03-24T11:02:55.290Z,17.30
2023-03-24T11:05:35.193Z,17.10
2023-03-24T11:08:47.304Z,16.90
2023-03-24T11:11:32.150Z,17.10
2023-03-24T11:14:02.260Z,17.00
2023-03-24T11:17:18.815Z,17.40
2023-03-24T11:20:22.298Z,17.30
2023-03-24T11:23:03.011Z,17.00
2023-03-24T11:25:45.782Z,17.40
2023-03-24T11:28:23.966Z,17.50
2023-03-24T11:30:56.453Z,17.70
2023-03-24T11:36:41.268Z,17.30
2023-03-24T11:39:35.976Z,17.20
2023-03-24T11:42:41.149Z,17.20
2023-03-24T11:46:01.329Z,17.10
2023-03-24T11:48:56.463Z,17.10
2023-03-24T11:51:38.170Z,17.00
2023-03-24T11:54:13.328Z,16.90
2023-03-24T11:56:49.101Z,16.80
2023-03-24T11:59:45.784Z,16.80
2023-03-24T12:02:33.768Z,16.80
2023-03-24T12:05:47.659Z,16.50
2023-03-24T12:08:57.501Z,17.10
2023-03-24T12:11:55.427Z,17.10
2023-03-24T12:14:47.907Z,17.10
2023-03-24T12:17:30.842Z,17.00
2023-03-24T12:20:25.178Z,16.90
2023-03-24T12:23:15.152Z,16.70
2023-03-24T12:25:53.491Z,16.80
2023-03-24T12:28:32.871Z,16.70
2023-03-24T12:31:39.852Z,16.60
2023-03-24T12:34:22.009Z,16.70
2023-03-24T12:37:11.765Z,16.60
2023-03-24T12:40:17.723Z,16.60
2023-03-24T12:42:54.025Z,16.60
2023-03-24T12:45:30.016Z,16.60
2023-03-24T12:48:03.898Z,16.60
2023-03-24T12:51:03.209Z,16.60
2023-03-24T12:53:37.697Z,16.50
2023-03-24T12:56:10.868Z,16.50
2023-03-24T12:59:10.666Z,16.40
2023-03-24T13:02:06.399Z,16.40
2023-03-24T13:04:42.462Z,16.40
2023-03-24T13:07:16.280Z,16.40
2023-03-24T13:10:12.520Z,16.40
2023-03-24T13:12:55.352Z,16.40
2023-03-24T13:15:29.525Z,16.30
2023-03-24T13:18:11.920Z,16.20
2023-03-24T13:21:08.932Z,16.20
2023-03-24T13:24:07.975Z,16.20
2023-03-24T13:26:58.291Z,16.10
2023-03-24T13:30:07.408Z,16.00
2023-03-24T13:32:58.803Z,16.00
2023-03-24T13:35:57.517Z,16.00
2023-03-24T13:39:01.268Z,16.00
2023-03-24T13:41:35.253Z,16.00
2023-03-24T13:44:16.699Z,16.00
2023-03-24T13:46:44.599Z,16.00
2023-03-24T13:49:16.521Z,16.10
2023-03-24T13:51:49.253Z,16.10
2023-03-24T13:54:27.571Z,16.00
2023-03-24T13:57:05.197Z,16.00
2023-03-24T13:59:51.722Z,16.00
2023-03-24T14:02:41.938Z,17.00
2023-03-24T14:05:11.474Z,16.00
2023-03-24T14:07:51.842Z,16.20
2023-03-24T14:10:21.027Z,16.20
2023-03-24T14:12:55.082Z,16.40
2023-03-24T14:15:35.518Z,16.50
2023-03-24T14:18:30.737Z,16.60
2023-03-24T14:21:05.652Z,16.40
2023-03-24T14:23:46.906Z,16.40
2023-03-24T14:26:30.926Z,16.40
2023-03-24T14:28:59.250Z,16.40
2023-03-24T14:31:51.946Z,16.40
2023-03-24T14:34:25.620Z,16.40
2023-03-24T14:37:04.282Z,16.40
2023-03-24T14:39:41.885Z,16.50
2023-03-24T14:42:53.515Z,16.60
2023-03-24T14:45:44.416Z,16.80
2023-03-24T14:48:44.214Z,16.90
2023-03-24T14:51:37.362Z,17.10
2023-03-24T14:54:17.803Z,16.60
2023-03-24T14:56:57.304Z,17.10
2023-03-24T14:59:48.791Z,17.00
2023-03-24T15:02:40.786Z,17.00
2023-03-24T15:05:22.562Z,17.00
2023-03-24T15:08:15.022Z,17.00
2023-03-24T15:11:04.554Z,17.00
2023-03-24T15:13:39.292Z,16.40
2023-03-24T15:16:21.594Z,17.00
2023-03-24T15:19:02.327Z,17.10
2023-03-24T15:21:52.464Z,17.10
2023-03-24T15:24:37.290Z,17.10
2023-03-24T15:27:27.200Z,16.00
2023-03-24T15:30:02.029Z,17.00
2023-03-24T15:32:33.472Z,16.90
2023-03-24T15:35:08.882Z,16.90
2023-03-24T15:37:43.655Z,16.90
2023-03-24T15:40:34.981Z,16.90
2023-03-24T15:43:08.237Z,17.20
2023-03-24T15:46:08.788Z,15.80
2023-03-24T15:48:50.142Z,16.40
2023-03-24T15:54:46.948Z,16.20
2023-03-24T15:57:19.324Z,16.40
2023-03-24T16:00:21.225Z,16.40
2023-03-24T16:03:01.188Z,16.40
2023-03-24T16:05:31.132Z,16.30
2023-03-24T16:11:30.809Z,16.30
2023-03-24T16:13:59.787Z,16.30
2023-03-24T16:16:30.158Z,16.10
2023-03-24T16:19:00.031Z,16.20
2023-03-24T16:21:30.487Z,16.20
2023-03-24T16:23:58.478Z,16.60
2023-03-24T16:26:31.458Z,16.10
2023-03-24T16:29:21.953Z,16.00
2023-03-24T16:31:54.169Z,16.00
2023-03-24T16:34:23.010Z,15.90
2023-03-24T16:36:54.639Z,15.20
2023-03-24T16:39:26.683Z,15.90
2023-03-24T16:41:56.975Z,15.80
2023-03-24T16:44:25.303Z,15.70
2023-03-24T16:46:54.372Z,15.70
2023-03-24T16:49:22.826Z,15.60
2023-03-24T16:51:59.002Z,15.50
2023-03-24T16:54:27.243Z,15.40
2023-03-24T16:56:58.596Z,15.30
2023-03-24T16:59:28.806Z,15.20
2023-03-24T17:02:04.797Z,15.20
2023-03-24T17:04:34.156Z,15.10
2023-03-24T17:07:04.818Z,15.10
2023-03-24T17:09:35.998Z,15.00
2023-03-24T17:12:06.366Z,15.10
2023-03-24T17:14:39.692Z,15.10
2023-03-24T17:17:11.825Z,15.20
2023-03-24T17:19:43.577Z,15.20
2023-03-24T17:22:24.774Z,15.10
2023-03-24T17:24:57.882Z,15.20
2023-03-24T17:27:31.466Z,15.10
2023-03-24T17:30:01.042Z,15.10
2023-03-24T17:32:30.176Z,16.00
2023-03-24T17:35:00.482Z,15.10
2023-03-24T17:37:31.906Z,15.20
2023-03-24T17:40:07.965Z,15.20
2023-03-24T17:46:27.148Z,14.00
2023-03-24T17:49:14.619Z,14.70
2023-03-24T17:52:00.555Z,14.20
2023-03-24T17:54:36.942Z,13.50
2023-03-24T17:57:19.997Z,13.60
2023-03-24T18:00:10.118Z,13.50
2023-03-24T18:02:54.310Z,13.50
2023-03-24T18:05:47.512Z,13.50
2023-03-24T18:12:08.896Z,14.60
2023-03-24T18:14:42.995Z,13.30
2023-03-24T18:17:17.034Z,13.30
2023-03-24T18:20:35.813Z,13.20
2023-03-24T18:23:39.137Z,13.10
2023-03-24T18:26:28.490Z,12.90
2023-03-24T18:29:05.853Z,12.80
2023-03-24T18:31:44.320Z,12.80
2023-03-24T18:34:14.393Z,12.80
2023-03-24T18:36:53.129Z,12.70
2023-03-24T18:51:42.689Z,12.40
2023-03-24T19:03:04.524Z,12.20
2023-03-24T19:09:52.422Z,12.10
2023-03-24T19:13:27.664Z,12.00
2023-03-24T19:27:39.387Z,11.80
2023-03-24T21:03:38.392Z,11.10
2023-03-24T21:06:52.206Z,11.10
2023-03-24T21:21:33.555Z,11.10
2023-03-24T21:24:52.942Z,11.00
2023-03-24T21:45:16.290Z,11.00
2023-03-24T21:58:02.102Z,11.10
2023-03-24T22:00:41.609Z,11.00
2023-03-24T22:06:31.048Z,10.90
2023-03-24T22:09:20.733Z,11.00
2023-03-24T22:11:57.631Z,10.90
2023-03-24T22:14:31.372Z,10.90
2023-03-24T22:17:00.710Z,10.80
2023-03-24T22:19:53.321Z,10.90
2023-03-24T22:22:24.124Z,10.90
2023-03-24T22:25:27.088Z,10.30
2023-03-24T22:28:00.724Z,10.80
2023-03-24T22:30:31.320Z,10.90
2023-03-24T22:33:22.819Z,10.80
2023-03-24T22:36:18.034Z,10.80
2023-03-24T22:38:48.036Z,10.80
2023-03-24T22:41:19.623Z,10.80
2023-03-24T22:43:54.808Z,10.90
2023-03-24T22:46:25.357Z,10.50
2023-03-24T22:48:54.320Z,10.60
2023-03-24T22:51:40.782Z,10.60
2023-03-24T22:54:19.153Z,10.50
2023-03-24T22:56:56.847Z,10.50
2023-03-24T22:59:33.301Z,10.40
2023-03-24T23:02:46.126Z,11.20
2023-03-24T23:08:01.943Z,9.90
2023-03-24T23:10:37.108Z,10.30
2023-03-24T23:13:07.566Z,10.30
2023-03-24T23:15:44.142Z,10.30
2023-03-24T23:18:48.368Z,10.20
2023-03-24T23:21:45.269Z,10.20
2023-03-24T23:24:18.187Z,10.50
2023-03-24T23:26:54.148Z,10.00
2023-03-24T23:29:49.272Z,9.90
2023-03-24T23:32:19.313Z,9.90
2023-03-24T23:35:14.029Z,9.90
2023-03-24T23:37:48.492Z,9.70
2023-03-24T23:41:10.678Z,9.70
2023-03-24T23:43:42.190Z,9.70
2023-03-24T23:46:25.452Z,9.60
2023-03-24T23:48:56.274Z,9.60
2023-03-24T23:51:44.808Z,9.60
2023-03-24T23:54:12.686Z,9.60
2023-03-24T23:57:04.680Z,9.50
2023-03-24T23:59:59.339Z,9.50
